sensor_id;sensor_type;location;lat;lon;timestamp;temperature;humidity
26954;DHT22;14508;50.924;11.600;2024-02-28T00:00:31;5.90;99.90
26954;DHT22;14508;50.924;11.600;2024-02-28T00:03:00;5.90;99.90
26954;DHT22;14508;50.924;11.600;2024-02-28T00:05:28;5.80;99.90
26954;DHT22;14508;50.924;11.600;2024-02-28T00:07:56;5.80;99.90
26954;DHT22;14508;50.924;11.600;2024-02-28T00:10:24;5.70;99.90
26954;DHT22;14508;50.924;11.600;2024-02-28T00:12:52;5.70;99.90
26954;DHT22;14508;50.924;11.600;2024-02-28T00:15:20;5.70;99.90
26954;DHT22;14508;50.924;11.600;2024-02-28T00:17:51;5.70;99.90
26954;DHT22;14508;50.924;11.600;2024-02-28T00:20:21;5.70;99.90
26954;DHT22;14508;50.924;11.600;2024-02-28T00:22:50;5.80;99.90
26954;DHT22;14508;50.924;11.600;2024-02-28T00:25:18;5.80;99.90
26954;DHT22;14508;50.924;11.600;2024-02-28T00:27:46;5.80;99.90
26954;DHT22;14508;50.924;11.600;2024-02-28T00:30:14;5.80;99.90
26954;DHT22;14508;50.924;11.600;2024-02-28T00:32:42;5.80;99.90
26954;DHT22;14508;50.924;11.600;2024-02-28T00:35:10;5.80;99.90
26954;DHT22;14508;50.924;11.600;2024-02-28T00:37:39;5.80;99.90
26954;DHT22;14508;50.924;11.600;2024-02-28T00:40:09;5.80;99.90
26954;DHT22;14508;50.924;11.600;2024-02-28T00:42:37;5.80;99.90
26954;DHT22;14508;50.924;11.600;2024-02-28T00:45:05;5.70;99.90
26954;DHT22;14508;50.924;11.600;2024-02-28T00:47:33;5.80;99.90
26954;DHT22;14508;50.924;11.600;2024-02-28T00:50:01;5.80;99.90
26954;DHT22;14508;50.924;11.600;2024-02-28T00:52:29;5.80;99.90
26954;DHT22;14508;50.924;11.600;2024-02-28T00:55:00;5.80;99.90
26954;DHT22;14508;50.924;11.600;2024-02-28T00:57:28;5.70;99.90
26954;DHT22;14508;50.924;11.600;2024-02-28T00:59:56;5.70;99.90
26954;DHT22;14508;50.924;11.600;2024-02-28T01:02:24;5.70;99.90
26954;DHT22;14508;50.924;11.600;2024-02-28T01:04:52;5.70;99.90
26954;DHT22;14508;50.924;11.600;2024-02-28T01:07:19;5.60;99.90
26954;DHT22;14508;50.924;11.600;2024-02-28T01:09:47;5.60;99.90
26954;DHT22;14508;50.924;11.600;2024-02-28T01:12:16;5.60;99.90
26954;DHT22;14508;50.924;11.600;2024-02-28T01:14:44;5.60;99.90
26954;DHT22;14508;50.924;11.600;2024-02-28T01:17:12;5.50;99.90
26954;DHT22;14508;50.924;11.600;2024-02-28T01:19:40;5.50;99.90
26954;DHT22;14508;50.924;11.600;2024-02-28T01:22:08;5.60;99.90
26954;DHT22;14508;50.924;11.600;2024-02-28T01:24:36;5.60;99.90
26954;DHT22;14508;50.924;11.600;2024-02-28T01:27:04;5.60;99.90
26954;DHT22;14508;50.924;11.600;2024-02-28T01:29:33;5.60;99.90
26954;DHT22;14508;50.924;11.600;2024-02-28T01:32:01;5.50;99.90
26954;DHT22;14508;50.924;11.600;2024-02-28T01:34:29;5.50;99.90
26954;DHT22;14508;50.924;11.600;2024-02-28T01:36:57;5.50;99.90
26954;DHT22;14508;50.924;11.600;2024-02-28T01:39:25;5.50;99.90
26954;DHT22;14508;50.924;11.600;2024-02-28T01:41:53;5.50;99.90
26954;DHT22;14508;50.924;11.600;2024-02-28T01:44:21;5.50;99.90
26954;DHT22;14508;50.924;11.600;2024-02-28T01:46:51;5.50;99.90
26954;DHT22;14508;50.924;11.600;2024-02-28T01:49:21;5.50;99.90
26954;DHT22;14508;50.924;11.600;2024-02-28T01:51:50;5.50;99.90
26954;DHT22;14508;50.924;11.600;2024-02-28T01:54:18;5.50;99.90
26954;DHT22;14508;50.924;11.600;2024-02-28T01:56:47;5.50;99.90
26954;DHT22;14508;50.924;11.600;2024-02-28T01:59:15;5.60;99.90
26954;DHT22;14508;50.924;11.600;2024-02-28T02:01:45;5.50;99.90
26954;DHT22;14508;50.924;11.600;2024-02-28T02:04:15;5.50;99.90
26954;DHT22;14508;50.924;11.600;2024-02-28T02:06:44;5.50;99.90
26954;DHT22;14508;50.924;11.600;2024-02-28T02:09:12;5.40;99.90
26954;DHT22;14508;50.924;11.600;2024-02-28T02:11:40;5.40;99.90
26954;DHT22;14508;50.924;11.600;2024-02-28T02:14:08;5.40;99.90
26954;DHT22;14508;50.924;11.600;2024-02-28T02:16:35;5.30;99.90
26954;DHT22;14508;50.924;11.600;2024-02-28T02:19:03;5.30;99.90
26954;DHT22;14508;50.924;11.600;2024-02-28T02:21:41;5.30;99.90
26954;DHT22;14508;50.924;11.600;2024-02-28T02:24:12;5.30;99.90
26954;DHT22;14508;50.924;11.600;2024-02-28T02:26:40;5.40;99.90
26954;DHT22;14508;50.924;11.600;2024-02-28T02:29:11;5.30;99.90
26954;DHT22;14508;50.924;11.600;2024-02-28T02:31:39;5.40;99.90
26954;DHT22;14508;50.924;11.600;2024-02-28T02:34:07;5.40;99.90
26954;DHT22;14508;50.924;11.600;2024-02-28T02:36:35;5.40;99.90
26954;DHT22;14508;50.924;11.600;2024-02-28T02:39:03;5.40;99.90
26954;DHT22;14508;50.924;11.600;2024-02-28T02:41:32;5.20;99.90
26954;DHT22;14508;50.924;11.600;2024-02-28T02:44:00;5.20;99.90
26954;DHT22;14508;50.924;11.600;2024-02-28T02:46:28;5.30;99.90
26954;DHT22;14508;50.924;11.600;2024-02-28T02:48:56;5.20;99.90
26954;DHT22;14508;50.924;11.600;2024-02-28T02:51:24;5.30;99.90
26954;DHT22;14508;50.924;11.600;2024-02-28T02:53:52;5.20;99.90
26954;DHT22;14508;50.924;11.600;2024-02-28T02:56:20;5.20;99.90
26954;DHT22;14508;50.924;11.600;2024-02-28T02:58:49;5.30;99.90
26954;DHT22;14508;50.924;11.600;2024-02-28T03:01:17;5.30;99.90
26954;DHT22;14508;50.924;11.600;2024-02-28T03:03:47;5.30;99.90
26954;DHT22;14508;50.924;11.600;2024-02-28T03:06:15;5.30;99.90
26954;DHT22;14508;50.924;11.600;2024-02-28T03:08:42;5.30;99.90
26954;DHT22;14508;50.924;11.600;2024-02-28T03:11:10;5.40;99.90
26954;DHT22;14508;50.924;11.600;2024-02-28T03:13:38;5.40;99.90
26954;DHT22;14508;50.924;11.600;2024-02-28T03:16:08;5.40;99.90
26954;DHT22;14508;50.924;11.600;2024-02-28T03:18:35;5.40;99.90
26954;DHT22;14508;50.924;11.600;2024-02-28T03:21:04;5.40;99.90
26954;DHT22;14508;50.924;11.600;2024-02-28T03:23:33;5.40;99.90
26954;DHT22;14508;50.924;11.600;2024-02-28T03:26:03;5.40;99.90
26954;DHT22;14508;50.924;11.600;2024-02-28T03:28:31;5.40;99.90
26954;DHT22;14508;50.924;11.600;2024-02-28T03:30:59;5.30;99.90
26954;DHT22;14508;50.924;11.600;2024-02-28T03:33:28;5.30;99.90
26954;DHT22;14508;50.924;11.600;2024-02-28T03:35:58;5.30;99.90
26954;DHT22;14508;50.924;11.600;2024-02-28T03:38:26;5.30;99.90
26954;DHT22;14508;50.924;11.600;2024-02-28T03:40:54;5.30;99.90
26954;DHT22;14508;50.924;11.600;2024-02-28T03:43:22;5.20;99.90
26954;DHT22;14508;50.924;11.600;2024-02-28T03:45:50;5.30;99.90
26954;DHT22;14508;50.924;11.600;2024-02-28T03:48:18;5.30;99.90
26954;DHT22;14508;50.924;11.600;2024-02-28T03:50:47;5.30;99.90
26954;DHT22;14508;50.924;11.600;2024-02-28T03:53:15;5.30;99.90
26954;DHT22;14508;50.924;11.600;2024-02-28T03:55:43;5.30;99.90
26954;DHT22;14508;50.924;11.600;2024-02-28T03:58:11;5.30;99.90
26954;DHT22;14508;50.924;11.600;2024-02-28T04:00:39;5.30;99.90
26954;DHT22;14508;50.924;11.600;2024-02-28T04:03:07;5.30;99.90
26954;DHT22;14508;50.924;11.600;2024-02-28T04:05:35;5.30;99.90
26954;DHT22;14508;50.924;11.600;2024-02-28T04:08:05;5.30;99.90
26954;DHT22;14508;50.924;11.600;2024-02-28T04:10:33;5.30;99.90
26954;DHT22;14508;50.924;11.600;2024-02-28T04:13:00;5.30;99.90
26954;DHT22;14508;50.924;11.600;2024-02-28T04:15:29;5.30;99.90
26954;DHT22;14508;50.924;11.600;2024-02-28T04:17:57;5.40;99.90
26954;DHT22;14508;50.924;11.600;2024-02-28T04:20:26;5.40;99.90
26954;DHT22;14508;50.924;11.600;2024-02-28T04:22:54;5.50;99.90
26954;DHT22;14508;50.924;11.600;2024-02-28T04:25:23;5.40;99.90
26954;DHT22;14508;50.924;11.600;2024-02-28T04:27:51;5.50;99.90
26954;DHT22;14508;50.924;11.600;2024-02-28T04:30:19;5.50;99.90
26954;DHT22;14508;50.924;11.600;2024-02-28T04:32:47;5.40;99.90
26954;DHT22;14508;50.924;11.600;2024-02-28T04:35:16;5.40;99.90
26954;DHT22;14508;50.924;11.600;2024-02-28T04:37:46;5.40;99.90
26954;DHT22;14508;50.924;11.600;2024-02-28T04:40:14;5.40;99.90
26954;DHT22;14508;50.924;11.600;2024-02-28T04:42:43;5.40;99.90
26954;DHT22;14508;50.924;11.600;2024-02-28T04:45:11;5.40;99.90
26954;DHT22;14508;50.924;11.600;2024-02-28T04:47:39;5.50;99.90
26954;DHT22;14508;50.924;11.600;2024-02-28T04:50:11;5.50;99.90
26954;DHT22;14508;50.924;11.600;2024-02-28T04:52:39;5.40;99.90
26954;DHT22;14508;50.924;11.600;2024-02-28T04:55:07;5.40;99.90
26954;DHT22;14508;50.924;11.600;2024-02-28T04:57:35;5.40;99.90
26954;DHT22;14508;50.924;11.600;2024-02-28T05:00:06;5.40;99.90
26954;DHT22;14508;50.924;11.600;2024-02-28T05:02:35;5.40;99.90
26954;DHT22;14508;50.924;11.600;2024-02-28T05:05:03;5.40;99.90
26954;DHT22;14508;50.924;11.600;2024-02-28T05:07:31;5.40;99.90
26954;DHT22;14508;50.924;11.600;2024-02-28T05:09:59;5.40;99.90
26954;DHT22;14508;50.924;11.600;2024-02-28T05:12:27;5.30;99.90
26954;DHT22;14508;50.924;11.600;2024-02-28T05:14:55;5.30;99.90
26954;DHT22;14508;50.924;11.600;2024-02-28T05:17:24;5.30;99.90
26954;DHT22;14508;50.924;11.600;2024-02-28T05:19:52;5.30;99.90
26954;DHT22;14508;50.924;11.600;2024-02-28T05:22:20;5.40;99.90
26954;DHT22;14508;50.924;11.600;2024-02-28T05:24:48;5.40;99.90
26954;DHT22;14508;50.924;11.600;2024-02-28T05:27:16;5.40;99.90
26954;DHT22;14508;50.924;11.600;2024-02-28T05:29:44;5.50;99.90
26954;DHT22;14508;50.924;11.600;2024-02-28T05:32:12;5.50;99.90
26954;DHT22;14508;50.924;11.600;2024-02-28T05:34:41;5.50;99.90
26954;DHT22;14508;50.924;11.600;2024-02-28T05:37:09;5.50;99.90
26954;DHT22;14508;50.924;11.600;2024-02-28T05:39:38;5.40;99.90
26954;DHT22;14508;50.924;11.600;2024-02-28T05:42:06;5.40;99.90
26954;DHT22;14508;50.924;11.600;2024-02-28T05:44:34;5.50;99.90
26954;DHT22;14508;50.924;11.600;2024-02-28T05:47:02;5.50;99.90
26954;DHT22;14508;50.924;11.600;2024-02-28T05:49:30;5.50;99.90
26954;DHT22;14508;50.924;11.600;2024-02-28T05:52:00;5.50;99.90
26954;DHT22;14508;50.924;11.600;2024-02-28T05:54:28;5.40;99.90
26954;DHT22;14508;50.924;11.600;2024-02-28T05:56:57;5.50;99.90
26954;DHT22;14508;50.924;11.600;2024-02-28T05:59:25;5.50;99.90
26954;DHT22;14508;50.924;11.600;2024-02-28T06:01:52;5.50;99.90
26954;DHT22;14508;50.924;11.600;2024-02-28T06:04:21;5.50;99.90
26954;DHT22;14508;50.924;11.600;2024-02-28T06:06:49;5.50;99.90
26954;DHT22;14508;50.924;11.600;2024-02-28T06:09:19;5.50;99.90
26954;DHT22;14508;50.924;11.600;2024-02-28T06:11:47;5.50;99.90
26954;DHT22;14508;50.924;11.600;2024-02-28T06:14:15;5.50;99.90
26954;DHT22;14508;50.924;11.600;2024-02-28T06:16:42;5.50;99.90
26954;DHT22;14508;50.924;11.600;2024-02-28T06:19:10;5.60;99.90
26954;DHT22;14508;50.924;11.600;2024-02-28T06:21:38;5.60;99.90
26954;DHT22;14508;50.924;11.600;2024-02-28T06:24:06;5.60;99.90
26954;DHT22;14508;50.924;11.600;2024-02-28T06:26:36;5.60;99.90
26954;DHT22;14508;50.924;11.600;2024-02-28T06:29:04;5.60;99.90
26954;DHT22;14508;50.924;11.600;2024-02-28T06:31:33;5.60;99.90
26954;DHT22;14508;50.924;11.600;2024-02-28T06:34:00;5.60;99.90
26954;DHT22;14508;50.924;11.600;2024-02-28T06:36:30;5.70;99.90
26954;DHT22;14508;50.924;11.600;2024-02-28T06:38:58;5.70;99.90
26954;DHT22;14508;50.924;11.600;2024-02-28T06:41:26;5.70;99.90
26954;DHT22;14508;50.924;11.600;2024-02-28T06:43:55;5.80;99.90
26954;DHT22;14508;50.924;11.600;2024-02-28T06:46:23;5.80;99.90
26954;DHT22;14508;50.924;11.600;2024-02-28T06:48:51;5.80;99.90
26954;DHT22;14508;50.924;11.600;2024-02-28T06:51:19;5.80;99.90
26954;DHT22;14508;50.924;11.600;2024-02-28T06:53:47;5.80;99.90
26954;DHT22;14508;50.924;11.600;2024-02-28T06:56:15;5.80;99.90
26954;DHT22;14508;50.924;11.600;2024-02-28T06:58:43;5.80;99.90
26954;DHT22;14508;50.924;11.600;2024-02-28T07:01:12;5.70;99.90
26954;DHT22;14508;50.924;11.600;2024-02-28T07:03:40;5.70;99.90
26954;DHT22;14508;50.924;11.600;2024-02-28T07:06:09;5.60;99.90
26954;DHT22;14508;50.924;11.600;2024-02-28T07:08:37;5.60;99.90
26954;DHT22;14508;50.924;11.600;2024-02-28T07:11:05;5.60;99.90
26954;DHT22;14508;50.924;11.600;2024-02-28T07:13:40;5.70;99.90
26954;DHT22;14508;50.924;11.600;2024-02-28T07:16:08;5.80;99.90
26954;DHT22;14508;50.924;11.600;2024-02-28T07:18:37;5.80;99.90
26954;DHT22;14508;50.924;11.600;2024-02-28T07:21:05;5.80;99.90
26954;DHT22;14508;50.924;11.600;2024-02-28T07:23:33;5.90;99.90
26954;DHT22;14508;50.924;11.600;2024-02-28T07:26:01;6.00;99.90
26954;DHT22;14508;50.924;11.600;2024-02-28T07:28:42;6.00;99.90
26954;DHT22;14508;50.924;11.600;2024-02-28T07:31:14;6.10;99.90
26954;DHT22;14508;50.924;11.600;2024-02-28T07:33:43;6.20;99.90
26954;DHT22;14508;50.924;11.600;2024-02-28T07:36:12;6.30;99.90
26954;DHT22;14508;50.924;11.600;2024-02-28T07:38:41;6.40;99.90
26954;DHT22;14508;50.924;11.600;2024-02-28T07:41:09;6.50;99.90
26954;DHT22;14508;50.924;11.600;2024-02-28T07:43:37;6.60;99.90
26954;DHT22;14508;50.924;11.600;2024-02-28T07:46:06;6.60;99.90
26954;DHT22;14508;50.924;11.600;2024-02-28T07:48:35;6.60;99.90
26954;DHT22;14508;50.924;11.600;2024-02-28T07:51:06;6.70;99.90
26954;DHT22;14508;50.924;11.600;2024-02-28T07:53:35;6.80;99.90
26954;DHT22;14508;50.924;11.600;2024-02-28T07:56:03;6.90;99.90
26954;DHT22;14508;50.924;11.600;2024-02-28T07:58:31;6.90;99.90
26954;DHT22;14508;50.924;11.600;2024-02-28T08:00:59;6.90;99.90
26954;DHT22;14508;50.924;11.600;2024-02-28T08:03:27;6.90;99.90
26954;DHT22;14508;50.924;11.600;2024-02-28T08:05:55;6.90;99.90
26954;DHT22;14508;50.924;11.600;2024-02-28T08:08:24;7.00;99.90
26954;DHT22;14508;50.924;11.600;2024-02-28T08:10:52;7.10;99.90
26954;DHT22;14508;50.924;11.600;2024-02-28T08:13:21;7.20;99.90
26954;DHT22;14508;50.924;11.600;2024-02-28T08:15:49;7.30;99.90
26954;DHT22;14508;50.924;11.600;2024-02-28T08:18:17;7.30;99.90
26954;DHT22;14508;50.924;11.600;2024-02-28T08:20:45;7.30;99.90
26954;DHT22;14508;50.924;11.600;2024-02-28T08:23:13;7.40;99.90
26954;DHT22;14508;50.924;11.600;2024-02-28T08:25:42;7.60;99.90
26954;DHT22;14508;50.924;11.600;2024-02-28T08:28:10;7.70;99.90
26954;DHT22;14508;50.924;11.600;2024-02-28T08:30:38;7.80;99.90
26954;DHT22;14508;50.924;11.600;2024-02-28T08:33:07;7.60;99.90
26954;DHT22;14508;50.924;11.600;2024-02-28T08:35:35;7.50;99.90
26954;DHT22;14508;50.924;11.600;2024-02-28T08:38:04;7.50;99.90
26954;DHT22;14508;50.924;11.600;2024-02-28T08:40:31;7.70;99.90
26954;DHT22;14508;50.924;11.600;2024-02-28T08:43:01;7.90;99.90
26954;DHT22;14508;50.924;11.600;2024-02-28T08:45:29;8.00;99.90
26954;DHT22;14508;50.924;11.600;2024-02-28T08:47:57;8.10;99.90
26954;DHT22;14508;50.924;11.600;2024-02-28T08:50:28;8.10;99.90
26954;DHT22;14508;50.924;11.600;2024-02-28T08:52:56;8.20;99.90
26954;DHT22;14508;50.924;11.600;2024-02-28T08:55:24;8.10;99.90
26954;DHT22;14508;50.924;11.600;2024-02-28T08:57:52;8.10;99.90
26954;DHT22;14508;50.924;11.600;2024-02-28T09:00:22;8.10;99.90
26954;DHT22;14508;50.924;11.600;2024-02-28T09:02:50;8.00;99.90
26954;DHT22;14508;50.924;11.600;2024-02-28T09:05:18;7.90;99.90
26954;DHT22;14508;50.924;11.600;2024-02-28T09:07:46;7.70;99.90
26954;DHT22;14508;50.924;11.600;2024-02-28T09:10:18;7.60;99.90
26954;DHT22;14508;50.924;11.600;2024-02-28T09:12:48;7.60;99.90
26954;DHT22;14508;50.924;11.600;2024-02-28T09:15:16;7.50;99.90
26954;DHT22;14508;50.924;11.600;2024-02-28T09:17:45;7.30;99.90
26954;DHT22;14508;50.924;11.600;2024-02-28T09:20:13;7.10;99.90
26954;DHT22;14508;50.924;11.600;2024-02-28T09:22:42;6.90;99.90
26954;DHT22;14508;50.924;11.600;2024-02-28T09:25:10;6.90;99.90
26954;DHT22;14508;50.924;11.600;2024-02-28T09:27:38;7.00;99.90
26954;DHT22;14508;50.924;11.600;2024-02-28T09:30:07;7.10;99.90
26954;DHT22;14508;50.924;11.600;2024-02-28T09:32:35;7.10;99.90
26954;DHT22;14508;50.924;11.600;2024-02-28T09:35:05;7.30;99.90
26954;DHT22;14508;50.924;11.600;2024-02-28T09:37:33;7.40;99.90
26954;DHT22;14508;50.924;11.600;2024-02-28T09:40:01;7.50;99.90
26954;DHT22;14508;50.924;11.600;2024-02-28T09:42:30;7.40;99.90
26954;DHT22;14508;50.924;11.600;2024-02-28T09:45:00;7.50;99.90
26954;DHT22;14508;50.924;11.600;2024-02-28T09:47:28;7.40;99.90
26954;DHT22;14508;50.924;11.600;2024-02-28T09:49:57;7.50;99.90
26954;DHT22;14508;50.924;11.600;2024-02-28T09:52:26;7.60;99.90
26954;DHT22;14508;50.924;11.600;2024-02-28T09:54:55;7.90;99.90
26954;DHT22;14508;50.924;11.600;2024-02-28T09:57:23;8.10;99.90
26954;DHT22;14508;50.924;11.600;2024-02-28T09:59:56;8.20;99.90
26954;DHT22;14508;50.924;11.600;2024-02-28T10:02:26;8.30;99.90
26954;DHT22;14508;50.924;11.600;2024-02-28T10:04:56;8.30;99.90
26954;DHT22;14508;50.924;11.600;2024-02-28T10:07:27;8.30;99.90
26954;DHT22;14508;50.924;11.600;2024-02-28T10:09:55;8.30;99.90
26954;DHT22;14508;50.924;11.600;2024-02-28T10:12:23;8.20;99.60
26954;DHT22;14508;50.924;11.600;2024-02-28T10:14:52;8.10;99.90
26954;DHT22;14508;50.924;11.600;2024-02-28T10:17:20;8.20;99.80
26954;DHT22;14508;50.924;11.600;2024-02-28T10:19:51;8.20;99.90
26954;DHT22;14508;50.924;11.600;2024-02-28T10:22:19;8.40;99.90
26954;DHT22;14508;50.924;11.600;2024-02-28T10:24:48;8.40;98.70
26954;DHT22;14508;50.924;11.600;2024-02-28T10:27:16;8.50;98.50
26954;DHT22;14508;50.924;11.600;2024-02-28T10:29:46;8.70;98.40
26954;DHT22;14508;50.924;11.600;2024-02-28T10:32:14;8.80;97.60
26954;DHT22;14508;50.924;11.600;2024-02-28T10:34:42;8.90;97.00
26954;DHT22;14508;50.924;11.600;2024-02-28T10:37:12;9.00;96.50
26954;DHT22;14508;50.924;11.600;2024-02-28T10:39:41;8.90;96.40
26954;DHT22;14508;50.924;11.600;2024-02-28T10:42:12;8.80;96.30
26954;DHT22;14508;50.924;11.600;2024-02-28T10:44:42;8.80;96.20
26954;DHT22;14508;50.924;11.600;2024-02-28T10:47:11;8.70;96.20
26954;DHT22;14508;50.924;11.600;2024-02-28T10:49:39;8.60;96.50
26954;DHT22;14508;50.924;11.600;2024-02-28T10:52:11;8.70;96.90
26954;DHT22;14508;50.924;11.600;2024-02-28T10:54:40;8.70;96.90
26954;DHT22;14508;50.924;11.600;2024-02-28T10:57:12;8.80;97.20
26954;DHT22;14508;50.924;11.600;2024-02-28T10:59:43;8.90;96.90
26954;DHT22;14508;50.924;11.600;2024-02-28T11:02:12;9.00;94.30
26954;DHT22;14508;50.924;11.600;2024-02-28T11:04:41;9.00;94.50
26954;DHT22;14508;50.924;11.600;2024-02-28T11:07:10;9.00;93.10
26954;DHT22;14508;50.924;11.600;2024-02-28T11:09:41;8.80;93.20
26954;DHT22;14508;50.924;11.600;2024-02-28T11:12:24;8.70;93.90
26954;DHT22;14508;50.924;11.600;2024-02-28T11:14:57;8.70;94.10
26954;DHT22;14508;50.924;11.600;2024-02-28T11:17:29;8.90;93.20
26954;DHT22;14508;50.924;11.600;2024-02-28T11:19:58;8.90;91.10
26954;DHT22;14508;50.924;11.600;2024-02-28T11:22:28;8.90;89.50
26954;DHT22;14508;50.924;11.600;2024-02-28T11:24:56;9.00;88.30
26954;DHT22;14508;50.924;11.600;2024-02-28T11:27:25;9.00;87.50
26954;DHT22;14508;50.924;11.600;2024-02-28T11:29:53;9.10;85.10
26954;DHT22;14508;50.924;11.600;2024-02-28T11:32:24;9.10;85.80
26954;DHT22;14508;50.924;11.600;2024-02-28T11:34:52;9.20;85.60
26954;DHT22;14508;50.924;11.600;2024-02-28T11:37:20;9.30;85.50
26954;DHT22;14508;50.924;11.600;2024-02-28T11:39:49;9.50;85.20
26954;DHT22;14508;50.924;11.600;2024-02-28T11:42:17;9.50;82.60
26954;DHT22;14508;50.924;11.600;2024-02-28T11:44:54;9.60;81.30
26954;DHT22;14508;50.924;11.600;2024-02-28T11:47:28;9.60;81.50
26954;DHT22;14508;50.924;11.600;2024-02-28T11:49:58;9.70;80.20
26954;DHT22;14508;50.924;11.600;2024-02-28T11:52:26;9.70;79.40
26954;DHT22;14508;50.924;11.600;2024-02-28T11:54:55;9.60;75.10
26954;DHT22;14508;50.924;11.600;2024-02-28T11:57:22;9.50;76.10
26954;DHT22;14508;50.924;11.600;2024-02-28T11:59:50;9.50;76.50
26954;DHT22;14508;50.924;11.600;2024-02-28T12:02:23;9.60;77.20
26954;DHT22;14508;50.924;11.600;2024-02-28T12:04:52;9.70;77.80
26954;DHT22;14508;50.924;11.600;2024-02-28T12:07:22;9.70;77.00
26954;DHT22;14508;50.924;11.600;2024-02-28T12:09:50;9.80;77.80
26954;DHT22;14508;50.924;11.600;2024-02-28T12:12:18;9.80;75.90
26954;DHT22;14508;50.924;11.600;2024-02-28T12:14:46;9.90;75.40
26954;DHT22;14508;50.924;11.600;2024-02-28T12:17:14;10.00;75.40
26954;DHT22;14508;50.924;11.600;2024-02-28T12:19:44;10.10;75.70
26954;DHT22;14508;50.924;11.600;2024-02-28T12:22:12;10.20;75.70
26954;DHT22;14508;50.924;11.600;2024-02-28T12:24:40;10.30;72.80
26954;DHT22;14508;50.924;11.600;2024-02-28T12:27:09;10.30;72.50
26954;DHT22;14508;50.924;11.600;2024-02-28T12:29:36;10.30;71.80
26954;DHT22;14508;50.924;11.600;2024-02-28T12:32:04;10.30;70.50
26954;DHT22;14508;50.924;11.600;2024-02-28T12:34:32;10.30;68.70
26954;DHT22;14508;50.924;11.600;2024-02-28T12:37:02;10.30;69.10
26954;DHT22;14508;50.924;11.600;2024-02-28T12:39:31;10.40;69.20
26954;DHT22;14508;50.924;11.600;2024-02-28T12:42:01;10.50;68.90
26954;DHT22;14508;50.924;11.600;2024-02-28T12:44:29;10.60;68.60
26954;DHT22;14508;50.924;11.600;2024-02-28T12:46:57;10.60;69.20
26954;DHT22;14508;50.924;11.600;2024-02-28T12:49:25;10.60;70.20
26954;DHT22;14508;50.924;11.600;2024-02-28T12:51:53;10.60;71.10
26954;DHT22;14508;50.924;11.600;2024-02-28T12:54:22;10.70;71.50
26954;DHT22;14508;50.924;11.600;2024-02-28T12:56:50;10.70;71.20
26954;DHT22;14508;50.924;11.600;2024-02-28T12:59:18;10.70;71.90
26954;DHT22;14508;50.924;11.600;2024-02-28T13:01:47;10.80;72.20
26954;DHT22;14508;50.924;11.600;2024-02-28T13:04:15;10.90;71.90
26954;DHT22;14508;50.924;11.600;2024-02-28T13:06:46;10.90;71.20
26954;DHT22;14508;50.924;11.600;2024-02-28T13:09:13;10.90;70.60
26954;DHT22;14508;50.924;11.600;2024-02-28T13:11:43;10.90;70.50
26954;DHT22;14508;50.924;11.600;2024-02-28T13:14:11;10.90;69.70
26954;DHT22;14508;50.924;11.600;2024-02-28T13:16:41;10.90;68.00
26954;DHT22;14508;50.924;11.600;2024-02-28T13:19:09;10.80;67.10
26954;DHT22;14508;50.924;11.600;2024-02-28T13:21:37;10.80;67.30
26954;DHT22;14508;50.924;11.600;2024-02-28T13:24:06;10.80;67.60
26954;DHT22;14508;50.924;11.600;2024-02-28T13:26:35;10.80;66.80
26954;DHT22;14508;50.924;11.600;2024-02-28T13:29:04;10.80;65.60
26954;DHT22;14508;50.924;11.600;2024-02-28T13:31:32;10.80;65.30
26954;DHT22;14508;50.924;11.600;2024-02-28T13:34:00;10.80;60.50
26954;DHT22;14508;50.924;11.600;2024-02-28T13:36:30;10.70;57.80
26954;DHT22;14508;50.924;11.600;2024-02-28T13:38:59;10.70;54.00
26954;DHT22;14508;50.924;11.600;2024-02-28T13:41:27;10.50;50.10
26954;DHT22;14508;50.924;11.600;2024-02-28T13:43:55;10.50;51.10
26954;DHT22;14508;50.924;11.600;2024-02-28T13:46:24;10.40;51.50
26954;DHT22;14508;50.924;11.600;2024-02-28T13:48:52;10.50;50.90
26954;DHT22;14508;50.924;11.600;2024-02-28T13:51:20;10.50;49.20
26954;DHT22;14508;50.924;11.600;2024-02-28T13:53:48;10.50;48.90
26954;DHT22;14508;50.924;11.600;2024-02-28T13:56:21;10.50;49.50
26954;DHT22;14508;50.924;11.600;2024-02-28T13:58:49;10.50;49.70
26954;DHT22;14508;50.924;11.600;2024-02-28T14:01:20;10.60;50.30
26954;DHT22;14508;50.924;11.600;2024-02-28T14:03:50;10.60;50.70
26954;DHT22;14508;50.924;11.600;2024-02-28T14:06:17;10.60;50.90
26954;DHT22;14508;50.924;11.600;2024-02-28T14:08:45;10.60;51.20
26954;DHT22;14508;50.924;11.600;2024-02-28T14:11:13;10.60;51.10
26954;DHT22;14508;50.924;11.600;2024-02-28T14:13:44;10.60;51.40
26954;DHT22;14508;50.924;11.600;2024-02-28T14:16:12;10.60;51.40
26954;DHT22;14508;50.924;11.600;2024-02-28T14:18:40;10.60;51.70
26954;DHT22;14508;50.924;11.600;2024-02-28T14:21:09;10.70;51.40
26954;DHT22;14508;50.924;11.600;2024-02-28T14:23:37;10.60;51.80
26954;DHT22;14508;50.924;11.600;2024-02-28T14:26:05;10.60;52.10
26954;DHT22;14508;50.924;11.600;2024-02-28T14:28:33;10.60;52.40
26954;DHT22;14508;50.924;11.600;2024-02-28T14:31:01;10.60;52.50
26954;DHT22;14508;50.924;11.600;2024-02-28T14:33:29;10.60;52.70
26954;DHT22;14508;50.924;11.600;2024-02-28T14:35:58;10.60;53.10
26954;DHT22;14508;50.924;11.600;2024-02-28T14:38:28;10.50;53.30
26954;DHT22;14508;50.924;11.600;2024-02-28T14:40:55;10.50;53.30
26954;DHT22;14508;50.924;11.600;2024-02-28T14:43:23;10.50;53.50
26954;DHT22;14508;50.924;11.600;2024-02-28T14:45:52;10.60;53.70
26954;DHT22;14508;50.924;11.600;2024-02-28T14:48:20;10.60;53.70
26954;DHT22;14508;50.924;11.600;2024-02-28T14:50:49;10.60;53.50
26954;DHT22;14508;50.924;11.600;2024-02-28T14:53:18;10.60;53.60
26954;DHT22;14508;50.924;11.600;2024-02-28T14:55:49;10.50;53.60
26954;DHT22;14508;50.924;11.600;2024-02-28T14:58:18;10.50;53.60
26954;DHT22;14508;50.924;11.600;2024-02-28T15:00:46;10.50;53.60
26954;DHT22;14508;50.924;11.600;2024-02-28T15:03:16;10.40;53.60
26954;DHT22;14508;50.924;11.600;2024-02-28T15:05:44;10.40;53.70
26954;DHT22;14508;50.924;11.600;2024-02-28T15:08:12;10.40;53.90
26954;DHT22;14508;50.924;11.600;2024-02-28T15:10:40;10.40;54.00
26954;DHT22;14508;50.924;11.600;2024-02-28T15:13:09;10.40;53.80
26954;DHT22;14508;50.924;11.600;2024-02-28T15:15:37;10.40;53.70
26954;DHT22;14508;50.924;11.600;2024-02-28T15:18:09;10.40;53.80
26954;DHT22;14508;50.924;11.600;2024-02-28T15:20:37;10.40;53.90
26954;DHT22;14508;50.924;11.600;2024-02-28T15:23:06;10.40;53.60
26954;DHT22;14508;50.924;11.600;2024-02-28T15:25:34;10.30;53.70
26954;DHT22;14508;50.924;11.600;2024-02-28T15:28:02;10.30;53.60
26954;DHT22;14508;50.924;11.600;2024-02-28T15:30:31;10.20;53.40
26954;DHT22;14508;50.924;11.600;2024-02-28T15:32:59;10.20;53.50
26954;DHT22;14508;50.924;11.600;2024-02-28T15:35:28;10.10;53.50